createdAt,value
2023-04-03T00:00:07.902Z,30.13
2023-04-03T00:00:39.441Z,30.40
2023-04-03T00:01:10.882Z,30.47
2023-04-03T00:01:42.448Z,30.32
2023-04-03T00:02:13.977Z,30.40
2023-04-03T00:02:45.499Z,30.25
2023-04-03T00:03:17.166Z,30.36
2023-04-03T00:03:48.696Z,30.35
2023-04-03T00:04:20.242Z,30.39
2023-04-03T00:04:54.389Z,30.36
2023-04-03T00:05:25.958Z,30.20
2023-04-03T00:05:57.524Z,30.41
2023-04-03T00:06:29.038Z,30.41
2023-04-03T00:07:00.453Z,30.17
2023-04-03T00:07:34.311Z,30.27
2023-04-03T00:08:05.749Z,30.32
2023-04-03T00:08:37.336Z,30.24
2023-04-03T00:09:10.506Z,30.33
2023-04-03T00:09:42.067Z,30.27
2023-04-03T00:10:13.480Z,30.33
2023-04-03T00:10:44.943Z,30.41
2023-04-03T00:11:16.405Z,30.28
2023-04-03T00:11:47.792Z,30.28
2023-04-03T00:12:19.219Z,30.40
2023-04-03T00:12:50.659Z,30.32
2023-04-03T00:13:22.164Z,30.39
2023-04-03T00:13:53.696Z,30.39
2023-04-03T00:14:25.163Z,30.36
2023-04-03T00:14:59.472Z,30.34
2023-04-03T00:15:30.926Z,30.35
2023-04-03T00:16:02.412Z,30.34
2023-04-03T00:16:33.885Z,30.06
2023-04-03T00:17:05.445Z,30.36
2023-04-03T00:17:37.012Z,30.34
2023-04-03T00:18:08.632Z,30.27
2023-04-03T00:18:40.158Z,30.28
2023-04-03T00:19:11.698Z,30.29
2023-04-03T00:19:43.207Z,30.43
2023-04-03T00:20:14.741Z,30.45
2023-04-03T00:20:49.142Z,30.18
2023-04-03T00:21:20.701Z,30.42
2023-04-03T00:21:52.160Z,30.32
2023-04-03T00:22:23.659Z,30.35
2023-04-03T00:22:55.115Z,30.27
2023-04-03T00:23:26.664Z,30.25
2023-04-03T00:23:58.115Z,30.24
2023-04-03T00:24:29.705Z,30.19
2023-04-03T00:25:01.170Z,30.24
2023-04-03T00:25:32.710Z,30.29
2023-04-03T00:26:04.127Z,30.34
2023-04-03T00:26:35.539Z,30.23
2023-04-03T00:27:07.030Z,30.29
2023-04-03T00:27:38.453Z,30.27
2023-04-03T00:28:09.871Z,30.29
2023-04-03T00:28:41.306Z,30.21
2023-04-03T00:29:12.764Z,30.17
2023-04-03T00:29:44.404Z,30.19
2023-04-03T00:30:15.835Z,30.21
2023-04-03T00:30:47.315Z,30.34
2023-04-03T00:31:18.860Z,30.14
2023-04-03T00:31:50.369Z,30.07
2023-04-03T00:32:23.556Z,30.31
2023-04-03T00:32:55.096Z,30.10
2023-04-03T00:33:26.612Z,30.20
2023-04-03T00:33:58.057Z,30.25
2023-04-03T00:34:29.512Z,30.28
2023-04-03T00:35:01.037Z,30.24
2023-04-03T00:35:32.589Z,30.21
2023-04-03T00:36:04.052Z,30.26
2023-04-03T00:36:35.612Z,30.18
2023-04-03T00:37:09.594Z,30.17
2023-04-03T00:37:41.034Z,30.24
2023-04-03T00:38:12.544Z,30.11
2023-04-03T00:38:43.975Z,30.00
2023-04-03T00:39:15.449Z,30.11
2023-04-03T00:39:46.866Z,30.17
2023-04-03T00:40:18.381Z,30.17
2023-04-03T00:40:51.314Z,30.28
2023-04-03T00:41:22.805Z,30.33
2023-04-03T00:41:54.256Z,30.10
2023-04-03T00:42:25.669Z,30.27
2023-04-03T00:42:57.115Z,30.14
2023-04-03T00:43:28.567Z,30.22
2023-04-03T00:43:59.987Z,30.22
2023-04-03T00:44:31.439Z,30.11
2023-04-03T00:45:05.616Z,30.08
2023-04-03T00:45:39.772Z,29.95
2023-04-03T00:46:14.339Z,30.21
2023-04-03T00:46:45.906Z,30.25
2023-04-03T00:47:17.406Z,30.20
2023-04-03T00:47:48.895Z,30.08
2023-04-03T00:48:20.556Z,30.20
2023-04-03T00:48:52.034Z,30.17
2023-04-03T00:49:23.474Z,30.18
2023-04-03T00:49:54.918Z,30.25
2023-04-03T00:50:26.419Z,30.21
2023-04-03T00:50:57.882Z,30.21
2023-04-03T00:51:29.331Z,30.40
2023-04-03T00:52:00.728Z,30.11
2023-04-03T00:52:32.237Z,30.05
2023-04-03T00:53:03.743Z,30.07
2023-04-03T00:53:35.172Z,30.11
2023-04-03T00:54:06.614Z,30.14
2023-04-03T00:54:38.063Z,30.23
2023-04-03T00:55:09.483Z,30.13
2023-04-03T00:55:40.946Z,30.19
2023-04-03T00:56:12.476Z,30.16
2023-04-03T00:56:43.936Z,30.25
2023-04-03T00:57:15.484Z,30.12
2023-04-03T00:57:50.028Z,30.16
2023-04-03T00:58:21.609Z,30.18
2023-04-03T00:58:53.082Z,30.13
2023-04-03T00:59:24.565Z,30.19
2023-04-03T00:59:55.937Z,30.16
2023-04-03T01:00:27.430Z,30.21
2023-04-03T01:00:59.070Z,30.22
2023-04-03T01:01:30.750Z,30.13
2023-04-03T01:02:02.426Z,30.28
2023-04-03T01:02:34.032Z,30.09
2023-04-03T01:03:05.505Z,30.36
2023-04-03T01:03:36.948Z,30.30
2023-04-03T01:04:08.363Z,30.22
2023-04-03T01:04:41.654Z,30.13
2023-04-03T01:05:13.173Z,30.12
2023-04-03T01:05:44.627Z,30.12
2023-04-03T01:06:16.127Z,30.25
2023-04-03T01:06:47.631Z,30.07
2023-04-03T01:07:21.660Z,30.17
2023-04-03T01:07:53.203Z,30.12
2023-04-03T01:08:24.735Z,30.18
2023-04-03T01:08:58.092Z,30.18
2023-04-03T01:09:29.716Z,30.10
2023-04-03T01:10:01.239Z,30.13
2023-04-03T01:10:32.723Z,30.13
2023-04-03T01:11:04.199Z,30.11
2023-04-03T01:11:35.682Z,30.22
2023-04-03T01:12:07.756Z,30.19
2023-04-03T01:12:39.207Z,30.11
2023-04-03T01:13:13.269Z,30.03
2023-04-03T01:13:44.727Z,30.16
2023-04-03T01:14:16.184Z,30.14
2023-04-03T01:14:47.637Z,30.07
2023-04-03T01:15:19.106Z,30.07
2023-04-03T01:15:50.563Z,30.33
2023-04-03T01:16:22.029Z,30.23
2023-04-03T01:16:53.533Z,30.13
2023-04-03T01:17:25.693Z,30.07
2023-04-03T01:17:57.160Z,30.12
2023-04-03T01:18:28.702Z,30.21
2023-04-03T01:19:00.135Z,29.94
2023-04-03T01:19:31.569Z,30.09
2023-04-03T01:20:03.010Z,30.07
2023-04-03T01:20:34.713Z,30.10
2023-04-03T01:21:08.929Z,30.03
2023-04-03T01:21:40.327Z,30.18
2023-04-03T01:22:11.867Z,30.22
2023-04-03T01:22:43.363Z,30.08
2023-04-03T01:23:14.848Z,30.12
2023-04-03T01:23:49.299Z,30.18
2023-04-03T01:24:20.746Z,30.08
2023-04-03T01:24:53.455Z,30.08
2023-04-03T01:25:24.922Z,30.04
2023-04-03T01:25:56.517Z,30.00
2023-04-03T01:26:29.971Z,30.04
2023-04-03T01:27:01.482Z,30.12
2023-04-03T01:27:33.010Z,30.13
2023-04-03T01:28:04.512Z,30.04
2023-04-03T01:28:36.011Z,30.18
2023-04-03T01:29:07.408Z,30.09
2023-04-03T01:29:38.892Z,30.04
2023-04-03T01:30:11.921Z,29.89
2023-04-03T01:30:43.370Z,30.12
2023-04-03T01:31:14.843Z,30.10
2023-04-03T01:31:46.317Z,30.04
2023-04-03T01:32:20.817Z,30.12
2023-04-03T01:32:52.297Z,30.04
2023-04-03T01:33:23.806Z,29.87
2023-04-03T01:33:55.263Z,29.94
2023-04-03T01:34:26.765Z,29.96
2023-04-03T01:34:58.238Z,30.12
2023-04-03T01:35:29.690Z,30.04
2023-04-03T01:36:01.174Z,29.86
2023-04-03T01:36:32.722Z,30.08
2023-04-03T01:37:04.204Z,29.96
2023-04-03T01:37:35.621Z,29.95
2023-04-03T01:38:10.249Z,29.98
2023-04-03T01:38:41.738Z,30.10
2023-04-03T01:39:13.247Z,30.08
2023-04-03T01:39:44.794Z,30.10
2023-04-03T01:40:16.212Z,30.12
2023-04-03T01:40:47.643Z,30.10
2023-04-03T01:41:19.133Z,30.03
2023-04-03T01:41:50.713Z,30.01
2023-04-03T01:42:22.138Z,30.03
2023-04-03T01:42:53.611Z,29.96
2023-04-03T01:43:25.031Z,29.97
2023-04-03T01:43:58.997Z,29.98
2023-04-03T01:44:30.486Z,29.84
2023-04-03T01:45:04.025Z,29.94
2023-04-03T01:45:35.448Z,30.06
2023-04-03T01:46:07.036Z,29.95
2023-04-03T01:46:38.571Z,30.08
2023-04-03T01:47:10.136Z,30.01
2023-04-03T01:47:41.652Z,29.88
2023-04-03T01:48:13.207Z,29.99
2023-04-03T01:48:47.602Z,30.00
2023-04-03T01:49:21.554Z,30.04
2023-04-03T01:49:53.048Z,30.01
2023-04-03T01:50:24.492Z,30.19
2023-04-03T01:50:55.914Z,29.96
2023-04-03T01:51:27.334Z,29.99
2023-04-03T01:51:58.772Z,30.16
2023-04-03T01:52:30.292Z,29.85
2023-04-03T01:53:01.807Z,30.04
2023-04-03T01:53:33.307Z,30.00
2023-04-03T01:54:04.790Z,30.24
2023-04-03T01:54:36.245Z,30.07
2023-04-03T01:55:07.660Z,30.04
2023-04-03T01:55:41.436Z,30.10
2023-04-03T01:56:18.550Z,30.17
2023-04-03T01:56:50.073Z,30.12
2023-04-03T01:57:21.636Z,30.00
2023-04-03T01:57:53.148Z,30.00
2023-04-03T01:58:24.623Z,29.99
2023-04-03T01:58:56.114Z,30.13
2023-04-03T01:59:27.630Z,30.02
2023-04-03T01:59:59.149Z,29.96
2023-04-03T02:00:30.657Z,29.86
2023-04-03T02:01:05.172Z,29.94
2023-04-03T02:01:36.757Z,30.02
2023-04-03T02:02:08.296Z,30.13
2023-04-03T02:02:39.835Z,29.95
2023-04-03T02:03:11.353Z,30.04
2023-04-03T02:03:42.911Z,29.93
2023-04-03T02:04:14.391Z,30.10
2023-04-03T02:04:46.039Z,30.16
2023-04-03T02:05:17.502Z,30.02
2023-04-03T02:05:48.978Z,29.92
2023-04-03T02:06:20.567Z,30.08
2023-04-03T02:06:52.004Z,30.15
2023-04-03T02:07:23.418Z,29.94
2023-04-03T02:07:57.738Z,29.75
2023-04-03T02:08:29.272Z,29.85
2023-04-03T02:09:00.752Z,29.85
2023-04-03T02:09:32.298Z,30.03
2023-04-03T02:10:03.732Z,29.82
2023-04-03T02:10:35.516Z,29.98
2023-04-03T02:11:07.218Z,29.83
2023-04-03T02:11:38.657Z,30.11
2023-04-03T02:12:10.092Z,29.89
2023-04-03T02:12:41.506Z,29.82
2023-04-03T02:13:13.005Z,29.87
2023-04-03T02:13:44.617Z,29.94
2023-04-03T02:14:16.113Z,29.75
2023-04-03T02:14:47.778Z,30.24
2023-04-03T02:15:19.274Z,29.84
2023-04-03T02:15:50.657Z,29.90
2023-04-03T02:16:22.124Z,29.85
2023-04-03T02:16:53.653Z,30.05
2023-04-03T02:17:25.130Z,30.01
2023-04-03T02:17:56.731Z,30.19
2023-04-03T02:18:28.219Z,30.03
2023-04-03T02:19:00.773Z,29.95
2023-04-03T02:19:32.190Z,29.92
2023-04-03T02:20:03.677Z,29.88
2023-04-03T02:20:35.347Z,29.82
2023-04-03T02:21:06.985Z,29.99
2023-04-03T02:21:38.420Z,30.02
2023-04-03T02:22:09.863Z,29.87
2023-04-03T02:22:43.056Z,29.95
2023-04-03T02:23:14.491Z,29.87
2023-04-03T02:23:48.809Z,29.94
2023-04-03T02:24:20.379Z,29.94
2023-04-03T02:24:51.828Z,29.94
2023-04-03T02:25:25.776Z,29.99
2023-04-03T02:25:57.256Z,29.89
2023-04-03T02:26:28.704Z,29.79
2023-04-03T02:27:05.134Z,29.90
2023-04-03T02:27:38.761Z,29.78
2023-04-03T02:28:10.144Z,30.00
2023-04-03T02:28:41.598Z,29.91
2023-04-03T02:29:13.017Z,29.89
2023-04-03T02:29:44.718Z,29.85
2023-04-03T02:30:17.619Z,29.95
2023-04-03T02:30:49.161Z,30.03
2023-04-03T02:31:20.650Z,29.90
2023-04-03T02:31:52.116Z,29.93
2023-04-03T02:32:23.543Z,29.94
2023-04-03T02:32:55.110Z,29.99
2023-04-03T02:33:26.634Z,29.82
2023-04-03T02:33:58.081Z,29.95
2023-04-03T02:34:29.531Z,29.98
2023-04-03T02:35:01.018Z,29.92
2023-04-03T02:35:32.500Z,30.08
2023-04-03T02:36:04.001Z,29.83
2023-04-03T02:36:35.532Z,29.83
2023-04-03T02:37:07.011Z,29.94
2023-04-03T02:37:38.484Z,29.75
2023-04-03T02:38:12.840Z,29.88
2023-04-03T02:38:44.444Z,29.74
2023-04-03T02:39:15.889Z,29.97
2023-04-03T02:39:47.334Z,29.91
2023-04-03T02:40:18.802Z,29.73
2023-04-03T02:40:50.404Z,29.90
2023-04-03T02:41:21.897Z,29.84
2023-04-03T02:41:54.523Z,29.91
2023-04-03T02:42:28.927Z,29.71
2023-04-03T02:43:00.406Z,29.79
2023-04-03T02:43:31.821Z,29.68
2023-04-03T02:44:03.253Z,29.89
2023-04-03T02:44:34.633Z,29.84
2023-04-03T02:45:06.060Z,29.61
2023-04-03T02:45:37.502Z,29.84
2023-04-03T02:46:09.042Z,29.94
2023-04-03T02:46:40.504Z,29.76
2023-04-03T02:47:12.011Z,29.79
2023-04-03T02:47:46.116Z,29.70
2023-04-03T02:48:17.602Z,29.71
2023-04-03T02:48:49.081Z,29.63
2023-04-03T02:49:20.593Z,29.71
2023-04-03T02:49:52.127Z,29.86
2023-04-03T02:50:23.564Z,29.84
2023-04-03T02:50:54.973Z,29.85
2023-04-03T02:51:26.394Z,29.92
2023-04-03T02:51:57.852Z,29.95
2023-04-03T02:52:29.269Z,29.90
2023-04-03T02:53:00.649Z,29.84
2023-04-03T02:53:37.636Z,29.78
2023-04-03T02:54:09.072Z,29.84
2023-04-03T02:54:40.620Z,29.94
2023-04-03T02:55:12.136Z,29.91
2023-04-03T02:55:43.581Z,29.88
2023-04-03T02:56:14.964Z,29.95
2023-04-03T02:56:46.470Z,29.89
2023-04-03T02:57:17.978Z,29.80
2023-04-03T02:57:49.534Z,29.94
2023-04-03T02:58:21.090Z,29.83
2023-04-03T02:58:52.620Z,29.96
2023-04-03T02:59:24.085Z,29.89
2023-04-03T02:59:55.592Z,29.84
2023-04-03T03:00:27.046Z,29.91
2023-04-03T03:00:58.545Z,29.93
2023-04-03T03:01:29.983Z,29.76
2023-04-03T03:02:01.510Z,29.99
2023-04-03T03:02:33.111Z,29.93
2023-04-03T03:03:10.408Z,29.92
2023-04-03T03:03:41.960Z,29.90
2023-04-03T03:04:13.407Z,29.95
2023-04-03T03:04:46.385Z,30.08
2023-04-03T03:05:17.963Z,29.75
2023-04-03T03:05:52.448Z,29.67
2023-04-03T03:06:23.915Z,29.67
2023-04-03T03:06:55.361Z,29.71
2023-04-03T03:07:26.780Z,29.83
2023-04-03T03:07:58.259Z,29.91
2023-04-03T03:08:29.795Z,29.63
2023-04-03T03:09:01.346Z,29.92
2023-04-03T03:09:32.833Z,29.85
2023-04-03T03:10:04.332Z,29.93
2023-04-03T03:10:36.000Z,29.90
2023-04-03T03:11:07.620Z,29.68
2023-04-03T03:11:39.047Z,29.74
2023-04-03T03:12:12.296Z,29.72
2023-04-03T03:12:45.464Z,29.72
2023-04-03T03:13:16.945Z,30.02
2023-04-03T03:13:48.333Z,29.94
2023-04-03T03:14:22.928Z,29.79
2023-04-03T03:14:54.416Z,29.92
2023-04-03T03:15:25.857Z,29.90
2023-04-03T03:15:57.362Z,29.84
2023-04-03T03:16:29.085Z,29.74
2023-04-03T03:17:00.590Z,29.67
2023-04-03T03:17:32.287Z,29.84
2023-04-03T03:18:03.755Z,29.78
2023-04-03T03:18:35.209Z,29.92
2023-04-03T03:19:06.636Z,29.98
2023-04-03T03:19:38.157Z,29.90
2023-04-03T03:20:09.598Z,29.92
2023-04-03T03:20:44.051Z,29.94
2023-04-03T03:21:15.483Z,29.96
2023-04-03T03:21:46.904Z,29.91
2023-04-03T03:22:18.348Z,29.67
2023-04-03T03:22:49.826Z,29.77
2023-04-03T03:23:23.035Z,29.85
2023-04-03T03:23:54.511Z,29.78
2023-04-03T03:24:25.952Z,29.69
2023-04-03T03:24:57.436Z,29.75
2023-04-03T03:25:28.888Z,29.82
2023-04-03T03:26:00.332Z,29.92
2023-04-03T03:26:31.790Z,29.96
2023-04-03T03:27:03.326Z,29.83
2023-04-03T03:27:37.641Z,29.95
2023-04-03T03:28:09.129Z,29.85
2023-04-03T03:28:40.571Z,29.83
2023-04-03T03:29:12.123Z,29.76
2023-04-03T03:29:43.582Z,29.76
2023-04-03T03:30:16.193Z,29.79
2023-04-03T03:30:47.693Z,29.64
2023-04-03T03:31:19.174Z,29.76
2023-04-03T03:31:50.709Z,29.78
2023-04-03T03:32:22.269Z,29.82
2023-04-03T03:32:53.813Z,29.76
2023-04-03T03:33:25.299Z,29.74
2023-04-03T03:33:56.806Z,29.94
2023-04-03T03:34:28.266Z,29.92
2023-04-03T03:34:59.728Z,29.85
2023-04-03T03:35:34.369Z,29.84
2023-04-03T03:36:05.901Z,29.74
2023-04-03T03:36:37.436Z,29.68
2023-04-03T03:37:11.878Z,29.87
2023-04-03T03:37:46.210Z,29.86
2023-04-03T03:38:17.693Z,29.88
2023-04-03T03:38:49.139Z,29.80
2023-04-03T03:39:20.730Z,29.87
2023-04-03T03:39:52.277Z,29.86
2023-04-03T03:40:26.491Z,29.83
2023-04-03T03:40:57.986Z,29.73
2023-04-03T03:41:29.438Z,29.88
2023-04-03T03:42:00.928Z,29.84
2023-04-03T03:42:32.364Z,29.68
2023-04-03T03:43:03.864Z,29.69
2023-04-03T03:43:35.262Z,29.77
2023-04-03T03:44:06.690Z,29.83
2023-04-03T03:44:38.211Z,29.78
2023-04-03T03:45:09.692Z,29.72
2023-04-03T03:45:41.102Z,29.87
2023-04-03T03:46:12.547Z,29.60
2023-04-03T03:46:46.889Z,29.87
2023-04-03T03:47:18.352Z,29.67
2023-04-03T03:47:49.791Z,29.76
2023-04-03T03:48:21.267Z,29.76
2023-04-03T03:48:52.708Z,29.64
2023-04-03T03:49:24.187Z,29.78
2023-04-03T03:49:55.725Z,29.77
2023-04-03T03:50:27.147Z,29.79
2023-04-03T03:50:58.539Z,29.94
2023-04-03T03:51:29.950Z,29.86
2023-04-03T03:52:01.456Z,29.83
2023-04-03T03:52:32.942Z,29.78
2023-04-03T03:53:04.475Z,29.70
2023-04-03T03:53:35.933Z,29.78
2023-04-03T03:54:07.431Z,29.55
2023-04-03T03:54:38.900Z,29.66
2023-04-03T03:55:10.431Z,29.78
2023-04-03T03:55:41.924Z,29.90
2023-04-03T03:56:13.336Z,29.76
2023-04-03T03:56:44.799Z,29.77
2023-04-03T03:57:16.230Z,29.67
2023-04-03T03:57:50.041Z,29.85
2023-04-03T03:58:21.619Z,29.95
2023-04-03T03:58:53.211Z,29.85
2023-04-03T03:59:27.248Z,29.76
2023-04-03T03:59:58.711Z,29.88
2023-04-03T04:00:30.218Z,29.95
2023-04-03T04:01:01.779Z,29.95
2023-04-03T04:01:33.191Z,29.70
2023-04-03T04:02:04.736Z,29.49
2023-04-03T04:02:37.414Z,29.73
2023-04-03T04:03:09.086Z,29.66
2023-04-03T04:03:40.731Z,29.73
2023-04-03T04:04:12.350Z,29.67
2023-04-03T04:04:45.126Z,29.73
2023-04-03T04:05:19.729Z,29.74
2023-04-03T04:05:51.293Z,29.64
2023-04-03T04:06:22.749Z,29.65
2023-04-03T04:06:54.389Z,29.66
2023-04-03T04:07:25.886Z,29.71
2023-04-03T04:07:57.295Z,29.63
2023-04-03T04:08:28.740Z,29.68
2023-04-03T04:09:00.156Z,29.77
2023-04-03T04:09:31.555Z,29.74
2023-04-03T04:10:02.971Z,29.65
2023-04-03T04:10:34.371Z,29.64
2023-04-03T04:11:06.101Z,29.60
2023-04-03T04:11:42.109Z,29.73
2023-04-03T04:12:13.646Z,29.62
2023-04-03T04:12:45.125Z,29.58
2023-04-03T04:13:16.558Z,29.66
2023-04-03T04:13:50.975Z,29.69
2023-04-03T04:14:22.503Z,29.67
2023-04-03T04:14:54.034Z,29.78
2023-04-03T04:15:25.532Z,29.73
2023-04-03T04:15:57.006Z,29.63
2023-04-03T04:16:28.526Z,29.76
2023-04-03T04:17:05.890Z,29.78
2023-04-03T04:17:37.371Z,29.66
2023-04-03T04:18:08.901Z,29.67
2023-04-03T04:18:40.334Z,29.81
2023-04-03T04:19:13.216Z,29.62
2023-04-03T04:19:44.659Z,29.60
2023-04-03T04:20:16.167Z,29.65
2023-04-03T04:20:47.634Z,29.56
2023-04-03T04:21:19.129Z,29.73
2023-04-03T04:21:50.632Z,29.54
2023-04-03T04:22:22.011Z,29.90
2023-04-03T04:22:53.420Z,29.99
2023-04-03T04:23:24.839Z,29.80
2023-04-03T04:23:59.214Z,29.86
2023-04-03T04:24:30.628Z,29.80
2023-04-03T04:25:02.059Z,29.73
2023-04-03T04:25:33.492Z,29.66
2023-04-03T04:26:04.931Z,29.68
2023-04-03T04:26:36.388Z,29.54
2023-04-03T04:27:07.995Z,29.84
2023-04-03T04:27:39.498Z,29.73
2023-04-03T04:28:14.172Z,29.69
2023-04-03T04:28:45.631Z,29.52
2023-04-03T04:29:17.040Z,29.43
2023-04-03T04:29:48.557Z,29.56
2023-04-03T04:30:19.996Z,29.75
2023-04-03T04:30:51.658Z,29.71
2023-04-03T04:31:23.137Z,29.80
2023-04-03T04:31:54.679Z,29.90
2023-04-03T04:32:26.201Z,29.76
2023-04-03T04:32:57.811Z,29.60
2023-04-03T04:33:29.267Z,29.78
2023-04-03T04:34:00.713Z,29.70
2023-04-03T04:34:32.251Z,29.77
2023-04-03T04:35:03.791Z,29.77
2023-04-03T04:35:35.549Z,29.86
2023-04-03T04:36:07.395Z,29.83
2023-04-03T04:36:39.001Z,29.74
2023-04-03T04:37:10.556Z,29.62
2023-04-03T04:37:42.111Z,29.60
2023-04-03T04:38:13.585Z,29.83
2023-04-03T04:38:45.016Z,29.84
2023-04-03T04:39:16.515Z,29.79
2023-04-03T04:39:47.975Z,29.81
2023-04-03T04:40:19.419Z,29.80
2023-04-03T04:40:50.932Z,29.73
2023-04-03T04:41:22.384Z,29.71
2023-04-03T04:41:53.784Z,29.77
2023-04-03T04:42:25.240Z,29.76
2023-04-03T04:42:56.815Z,29.66
2023-04-03T04:43:28.312Z,29.77
2023-04-03T04:44:02.382Z,29.76
2023-04-03T04:44:33.892Z,29.53
2023-04-03T04:45:05.344Z,29.87
2023-04-03T04:45:36.901Z,29.64
2023-04-03T04:46:08.518Z,29.63
2023-04-03T04:46:40.003Z,29.75
2023-04-03T04:47:11.516Z,29.63
2023-04-03T04:47:43.023Z,29.71
2023-04-03T04:48:14.634Z,29.80
2023-04-03T04:48:46.107Z,29.56
2023-04-03T04:49:17.530Z,29.78
2023-04-03T04:49:48.989Z,29.60
2023-04-03T04:50:20.528Z,29.59
2023-04-03T04:50:52.013Z,29.52
2023-04-03T04:51:23.443Z,29.82
2023-04-03T04:51:54.898Z,29.57
2023-04-03T04:52:26.393Z,29.64
2023-04-03T04:52:57.905Z,29.61
2023-04-03T04:53:29.400Z,29.52
2023-04-03T04:54:00.909Z,29.75
2023-04-03T04:54:35.402Z,29.57
2023-04-03T04:55:06.961Z,29.50
2023-04-03T04:55:38.582Z,29.69
2023-04-03T04:56:10.212Z,29.60
2023-04-03T04:56:41.680Z,29.60
2023-04-03T04:57:13.147Z,29.63
2023-04-03T04:57:44.572Z,29.74
2023-04-03T04:58:16.054Z,29.63
2023-04-03T04:58:47.514Z,29.67
2023-04-03T04:59:20.666Z,29.66
2023-04-03T04:59:53.394Z,29.80
2023-04-03T05:00:25.805Z,29.71
2023-04-03T05:00:57.366Z,29.67
2023-04-03T05:01:28.910Z,29.79
2023-04-03T05:02:03.693Z,29.70
2023-04-03T05:02:35.314Z,29.61
2023-04-03T05:03:06.978Z,29.63
2023-04-03T05:03:38.412Z,29.61
2023-04-03T05:04:09.889Z,29.68
2023-04-03T05:04:41.338Z,29.58
2023-04-03T05:05:13.047Z,29.67
2023-04-03T05:05:44.452Z,29.68
2023-04-03T05:06:15.892Z,29.58
2023-04-03T05:06:47.397Z,29.71
2023-04-03T05:07:18.853Z,29.63
2023-04-03T05:07:50.429Z,29.55
2023-04-03T05:08:21.969Z,29.59
2023-04-03T05:08:53.522Z,29.61
2023-04-03T05:09:24.978Z,29.59
2023-04-03T05:09:56.476Z,29.69
2023-04-03T05:10:28.228Z,29.72
2023-04-03T05:10:59.646Z,29.64
2023-04-03T05:11:31.103Z,29.66
2023-04-03T05:12:02.586Z,29.66
2023-04-03T05:12:34.076Z,29.63
2023-04-03T05:13:05.617Z,29.68
2023-04-03T05:13:37.075Z,29.68
2023-04-03T05:14:08.618Z,29.68
2023-04-03T05:14:40.109Z,29.58
2023-04-03T05:15:11.645Z,29.68
2023-04-03T05:15:43.712Z,29.78
2023-04-03T05:16:15.154Z,29.68
2023-04-03T05:16:46.669Z,29.70
2023-04-03T05:17:18.142Z,29.53
2023-04-03T05:17:49.702Z,29.70
2023-04-03T05:18:23.069Z,29.58
2023-04-03T05:18:54.557Z,29.76
2023-04-03T05:19:28.861Z,29.58
2023-04-03T05:20:00.400Z,29.50
2023-04-03T05:20:31.885Z,29.67
2023-04-03T05:21:03.292Z,29.68
2023-04-03T05:21:34.836Z,29.60
2023-04-03T05:22:06.328Z,29.59
2023-04-03T05:22:37.817Z,29.49
2023-04-03T05:23:09.251Z,29.51
2023-04-03T05:23:40.694Z,29.53
2023-04-03T05:24:12.184Z,29.51
2023-04-03T05:24:43.618Z,29.64
2023-04-03T05:25:15.188Z,29.67
2023-04-03T05:25:46.650Z,29.59
2023-04-03T05:26:18.185Z,29.43
2023-04-03T05:26:49.641Z,29.58
2023-04-03T05:27:21.075Z,29.62
2023-04-03T05:27:52.524Z,29.55
2023-04-03T05:28:23.977Z,29.61
2023-04-03T05:28:55.420Z,29.67
2023-04-03T05:29:26.898Z,29.54
2023-04-03T05:29:58.370Z,29.59
2023-04-03T05:30:32.929Z,29.62
2023-04-03T05:31:04.451Z,29.52
2023-04-03T05:31:35.952Z,29.41
2023-04-03T05:32:07.410Z,29.62
2023-04-03T05:32:38.917Z,29.62
2023-04-03T05:33:10.459Z,29.65
2023-04-03T05:33:41.979Z,29.61
2023-04-03T05:34:13.400Z,29.59
2023-04-03T05:34:44.875Z,29.59
2023-04-03T05:35:16.329Z,29.61
2023-04-03T05:35:47.949Z,29.61
2023-04-03T05:36:19.672Z,29.74
2023-04-03T05:36:51.314Z,29.58
2023-04-03T05:37:22.940Z,29.59
2023-04-03T05:37:54.441Z,29.65
2023-04-03T05:38:28.930Z,29.62
2023-04-03T05:39:00.447Z,29.60
2023-04-03T05:39:31.988Z,29.61
2023-04-03T05:40:03.430Z,29.60
2023-04-03T05:40:34.839Z,29.68
2023-04-03T05:41:06.354Z,29.58
2023-04-03T05:41:37.786Z,29.67
2023-04-03T05:42:09.183Z,29.45
2023-04-03T05:42:40.604Z,29.75
2023-04-03T05:43:12.030Z,29.69
2023-04-03T05:43:45.018Z,29.61
2023-04-03T05:44:16.452Z,29.47
2023-04-03T05:44:47.905Z,29.69
2023-04-03T05:45:19.318Z,29.50
2023-04-03T05:45:50.810Z,29.62
2023-04-03T05:46:22.700Z,29.51
2023-04-03T05:46:54.135Z,29.56
2023-04-03T05:47:25.574Z,29.65
2023-04-03T05:47:57.297Z,29.58
2023-04-03T05:48:28.821Z,29.45
2023-04-03T05:49:00.286Z,29.59
2023-04-03T05:49:31.718Z,29.47
2023-04-03T05:50:03.247Z,29.44
2023-04-03T05:50:34.644Z,29.49
2023-04-03T05:51:06.062Z,29.49
2023-04-03T05:51:39.713Z,29.55
2023-04-03T05:52:11.170Z,29.53
2023-04-03T05:52:42.596Z,29.56
2023-04-03T05:53:14.038Z,29.44
2023-04-03T05:53:45.496Z,29.61
2023-04-03T05:54:16.937Z,29.55
2023-04-03T05:54:48.587Z,29.43
2023-04-03T05:55:20.131Z,29.43
2023-04-03T05:55:51.678Z,29.45
2023-04-03T05:56:23.139Z,29.56
2023-04-03T05:56:54.626Z,29.52
2023-04-03T05:57:26.064Z,29.53
2023-04-03T05:57:57.608Z,29.46
2023-04-03T05:58:29.073Z,29.27
2023-04-03T05:59:00.644Z,29.75
2023-04-03T05:59:32.093Z,29.25
2023-04-03T06:00:06.340Z,29.48
2023-04-03T06:00:37.816Z,29.38
2023-04-03T06:01:09.303Z,29.56
2023-04-03T06:01:40.767Z,29.38
2023-04-03T06:02:12.248Z,29.43
2023-04-03T06:02:43.754Z,29.44
2023-04-03T06:03:15.443Z,29.49
2023-04-03T06:03:47.266Z,29.51
2023-04-03T06:04:19.020Z,29.53
2023-04-03T06:04:50.713Z,29.43
2023-04-03T06:05:22.222Z,29.39
2023-04-03T06:05:53.756Z,29.55
2023-04-03T06:06:25.229Z,29.60
2023-04-03T06:06:58.971Z,29.53
2023-04-03T06:07:33.130Z,29.50
2023-04-03T06:08:04.570Z,29.52
2023-04-03T06:08:35.997Z,29.55
2023-04-03T06:09:10.454Z,29.38
2023-04-03T06:09:44.898Z,29.46
2023-04-03T06:10:16.427Z,29.37
2023-04-03T06:10:47.869Z,29.33
2023-04-03T06:11:19.430Z,29.53
2023-04-03T06:11:50.898Z,29.46
2023-04-03T06:12:22.348Z,29.44
2023-04-03T06:12:53.750Z,29.49
2023-04-03T06:13:25.247Z,29.34
2023-04-03T06:13:56.741Z,29.55
2023-04-03T06:14:28.199Z,29.56
2023-04-03T06:14:59.680Z,29.50
2023-04-03T06:15:42.902Z,29.49
2023-04-03T06:16:14.406Z,29.63
2023-04-03T06:16:48.606Z,29.61
2023-04-03T06:17:20.255Z,29.50
2023-04-03T06:17:51.836Z,29.53
2023-04-03T06:18:23.270Z,29.30
2023-04-03T06:18:54.706Z,29.32
2023-04-03T06:19:26.230Z,29.44
2023-04-03T06:19:57.667Z,29.24
2023-04-03T06:20:31.966Z,29.34
2023-04-03T06:21:03.506Z,29.33
2023-04-03T06:21:34.941Z,29.26
2023-04-03T06:22:08.222Z,29.40
2023-04-03T06:22:39.714Z,29.24
2023-04-03T06:23:11.148Z,29.47
2023-04-03T06:23:42.562Z,29.26
2023-04-03T06:24:14.050Z,29.17
2023-04-03T06:24:45.495Z,29.24
2023-04-03T06:25:17.002Z,29.47
2023-04-03T06:25:48.502Z,29.34
2023-04-03T06:26:22.651Z,29.32
2023-04-03T06:26:54.121Z,29.29
2023-04-03T06:27:25.579Z,29.29
2023-04-03T06:27:59.446Z,29.24
2023-04-03T06:28:30.904Z,29.33
2023-04-03T06:29:02.423Z,29.36
2023-04-03T06:29:33.825Z,29.37
2023-04-03T06:30:05.335Z,29.32
2023-04-03T06:30:36.950Z,29.29
2023-04-03T06:31:08.628Z,29.33
2023-04-03T06:31:40.077Z,29.17
2023-04-03T06:32:11.519Z,29.29
2023-04-03T06:32:42.968Z,29.34
2023-04-03T06:33:14.519Z,29.40
2023-04-03T06:33:45.994Z,29.37
2023-04-03T06:34:17.477Z,29.34
2023-04-03T06:34:51.835Z,29.31
2023-04-03T06:35:25.824Z,29.23
2023-04-03T06:35:57.239Z,29.22
2023-04-03T06:36:28.911Z,29.32
2023-04-03T06:37:00.378Z,29.26
2023-04-03T06:37:31.837Z,29.17
2023-04-03T06:38:03.268Z,29.30
2023-04-03T06:38:34.712Z,29.39
2023-04-03T06:39:06.164Z,29.36
2023-04-03T06:39:37.595Z,29.29
2023-04-03T06:40:09.029Z,29.28
2023-04-03T06:40:43.489Z,29.39
2023-04-03T06:41:15.003Z,29.25
2023-04-03T06:41:49.573Z,29.29
2023-04-03T06:42:21.041Z,29.34
2023-04-03T06:42:52.437Z,29.35
2023-04-03T06:43:24.605Z,29.38
2023-04-03T06:43:56.136Z,29.28
2023-04-03T06:44:27.572Z,29.24
2023-04-03T06:44:58.993Z,29.20
2023-04-03T06:45:30.466Z,29.38
2023-04-03T06:46:01.965Z,29.26
2023-04-03T06:46:35.356Z,29.23
2023-04-03T06:47:06.934Z,29.32
2023-04-03T06:47:38.406Z,29.11
2023-04-03T06:48:09.941Z,29.27
2023-04-03T06:48:41.457Z,29.28
2023-04-03T06:49:15.041Z,29.36
2023-04-03T06:49:46.557Z,29.25